createdAt,value
2022-11-17T00:00:04.022Z,122.500000
2022-11-17T00:01:00.359Z,122.500000
2022-11-17T00:02:00.507Z,125.000000
2022-11-17T00:03:00.383Z,125.000000
2022-11-17T00:04:00.431Z,125.000000
2022-11-17T00:05:05.228Z,127.500000
2022-11-17T00:06:00.466Z,127.500000
2022-11-17T00:07:00.431Z,120.000000
2022-11-17T00:08:00.469Z,120.000000
2022-11-17T00:09:00.427Z,120.000000
2022-11-17T00:10:05.027Z,125.000000
2022-11-17T00:11:00.470Z,125.000000
2022-11-17T00:12:00.511Z,127.500000
2022-11-17T00:13:00.439Z,127.500000
2022-11-17T00:14:00.513Z,127.500000
2022-11-17T00:15:03.328Z,125.000000
2022-11-17T00:16:00.554Z,125.000000
2022-11-17T00:17:00.503Z,125.000000
2022-11-17T00:18:00.542Z,127.500000
2022-11-17T00:19:00.485Z,127.500000
2022-11-17T00:20:05.608Z,132.500000
2022-11-17T00:21:00.509Z,132.500000
2022-11-17T00:22:00.576Z,125.000000
2022-11-17T00:23:00.526Z,125.000000
2022-11-17T00:24:00.587Z,127.500000
2022-11-17T00:25:03.485Z,127.500000
2022-11-17T00:26:00.614Z,127.500000
2022-11-17T00:27:00.600Z,140.000000
2022-11-17T00:28:00.601Z,140.000000
2022-11-17T00:29:00.581Z,140.000000
2022-11-17T00:30:05.066Z,132.500000
2022-11-17T00:31:00.567Z,132.500000
2022-11-17T00:32:00.661Z,127.500000
2022-11-17T00:33:00.653Z,127.500000
2022-11-17T00:34:00.675Z,125.000000
2022-11-17T00:35:03.552Z,125.000000
2022-11-17T00:36:00.675Z,125.000000
2022-11-17T00:37:00.610Z,110.000000
2022-11-17T00:38:00.712Z,110.000000
2022-11-17T00:39:00.631Z,110.000000
2022-11-17T00:40:05.022Z,120.000000
2022-11-17T00:41:00.648Z,120.000000
2022-11-17T00:42:00.720Z,127.500000
2022-11-17T00:43:00.682Z,127.500000
2022-11-17T00:44:00.802Z,120.000000
2022-11-17T00:45:03.639Z,120.000000
2022-11-17T00:46:00.779Z,120.000000
2022-11-17T00:47:00.693Z,120.000000
2022-11-17T00:48:00.800Z,125.000000
2022-11-17T00:49:00.773Z,125.000000
2022-11-17T00:50:05.587Z,135.000000
2022-11-17T00:51:00.750Z,135.000000
2022-11-17T00:52:00.828Z,135.000000
2022-11-17T00:53:00.727Z,125.000000
2022-11-17T00:54:00.816Z,125.000000
2022-11-17T00:55:04.946Z,125.000000
2022-11-17T00:56:00.815Z,125.000000
2022-11-17T00:57:00.763Z,132.500000
2022-11-17T00:58:00.960Z,132.500000
2022-11-17T00:59:00.771Z,132.500000
2022-11-17T01:00:06.799Z,127.500000
2022-11-17T01:01:00.937Z,127.500000
2022-11-17T01:02:00.939Z,127.500000
2022-11-17T01:03:00.838Z,125.000000
2022-11-17T01:04:00.950Z,125.000000
2022-11-17T01:05:04.093Z,135.000000
2022-11-17T01:06:00.923Z,135.000000
2022-11-17T01:07:00.917Z,135.000000
2022-11-17T01:08:00.929Z,135.000000
2022-11-17T01:09:00.870Z,135.000000
2022-11-17T01:10:06.241Z,130.000000
2022-11-17T01:11:00.877Z,130.000000
2022-11-17T01:12:00.963Z,130.000000
2022-11-17T01:13:00.894Z,125.000000
2022-11-17T01:14:01.005Z,125.000000
2022-11-17T01:15:03.901Z,125.000000
2022-11-17T01:16:01.055Z,120.000000
2022-11-17T01:17:00.918Z,120.000000
2022-11-17T01:18:00.995Z,130.000000
2022-11-17T01:19:00.930Z,130.000000
2022-11-17T01:20:05.528Z,137.500000
2022-11-17T01:21:00.955Z,137.500000
2022-11-17T01:22:01.054Z,137.500000
2022-11-17T01:23:00.958Z,135.000000
2022-11-17T01:24:01.056Z,115.000000
2022-11-17T01:25:03.966Z,115.000000
2022-11-17T01:26:01.060Z,120.000000
2022-11-17T01:27:01.005Z,120.000000
2022-11-17T01:28:01.104Z,132.500000
2022-11-17T01:29:00.998Z,132.500000
2022-11-17T01:30:05.633Z,130.000000
2022-11-17T01:31:01.037Z,130.000000
2022-11-17T01:32:01.110Z,130.000000
2022-11-17T01:33:01.058Z,115.000000
2022-11-17T01:34:01.143Z,115.000000
2022-11-17T01:35:03.933Z,115.000000
2022-11-17T01:36:01.171Z,135.000000
2022-11-17T01:37:01.076Z,135.000000
2022-11-17T01:38:01.144Z,130.000000
2022-11-17T01:39:01.087Z,130.000000
2022-11-17T01:40:06.138Z,130.000000
2022-11-17T01:41:01.093Z,117.500000
2022-11-17T01:42:01.173Z,117.500000
2022-11-17T01:43:01.116Z,117.500000
2022-11-17T01:44:01.168Z,132.500000
2022-11-17T01:45:05.804Z,132.500000
2022-11-17T01:46:01.235Z,125.000000
2022-11-17T01:47:01.410Z,125.000000
2022-11-17T01:48:01.226Z,125.000000
2022-11-17T01:49:01.163Z,130.000000
2022-11-17T01:50:05.777Z,130.000000
2022-11-17T01:51:01.195Z,135.000000
2022-11-17T01:52:01.288Z,135.000000
2022-11-17T01:53:00.182Z,135.000000
2022-11-17T01:54:00.252Z,135.000000
2022-11-17T01:55:03.327Z,135.000000
2022-11-17T01:56:00.266Z,135.000000
2022-11-17T01:57:00.221Z,135.000000
2022-11-17T01:58:00.327Z,132.500000
2022-11-17T01:59:00.219Z,132.500000
2022-11-17T02:00:07.774Z,130.000000
2022-11-17T02:01:00.275Z,135.000000
2022-11-17T02:02:00.383Z,135.000000
2022-11-17T02:03:00.286Z,135.000000
2022-11-17T02:04:00.360Z,127.500000
2022-11-17T02:05:03.230Z,127.500000
2022-11-17T02:06:00.370Z,115.000000
2022-11-17T02:07:00.330Z,115.000000
2022-11-17T02:08:00.384Z,115.000000
2022-11-17T02:09:00.309Z,130.000000
2022-11-17T02:10:05.386Z,130.000000
2022-11-17T02:11:00.326Z,127.500000
2022-11-17T02:12:00.418Z,127.500000
2022-11-17T02:13:00.366Z,125.000000
2022-11-17T02:14:00.416Z,125.000000
2022-11-17T02:15:03.381Z,125.000000
2022-11-17T02:16:00.438Z,132.500000
2022-11-17T02:17:08.881Z,132.500000
2022-11-17T02:18:00.469Z,140.000000
2022-11-17T02:19:00.377Z,140.000000
2022-11-17T02:20:04.882Z,140.000000
2022-11-17T02:21:00.419Z,132.500000
2022-11-17T02:22:00.612Z,132.500000
2022-11-17T02:23:00.403Z,127.500000
2022-11-17T02:24:00.516Z,127.500000
2022-11-17T02:25:03.512Z,127.500000
2022-11-17T02:26:00.517Z,130.000000
2022-11-17T02:27:00.471Z,130.000000
2022-11-17T02:28:00.538Z,130.000000
2022-11-17T02:29:00.452Z,135.000000
2022-11-17T02:30:04.832Z,135.000000
2022-11-17T02:31:00.471Z,137.500000
2022-11-17T02:32:00.562Z,137.500000
2022-11-17T02:33:00.491Z,135.000000
2022-11-17T02:34:00.565Z,135.000000
2022-11-17T02:35:03.555Z,135.000000
2022-11-17T02:36:00.579Z,130.000000
2022-11-17T02:37:00.520Z,130.000000
2022-11-17T02:38:00.584Z,130.000000
2022-11-17T02:39:00.559Z,127.500000
2022-11-17T02:40:06.297Z,127.500000
2022-11-17T02:41:00.543Z,127.500000
2022-11-17T02:42:00.625Z,122.500000
2022-11-17T02:43:00.560Z,122.500000
2022-11-17T02:44:00.619Z,135.000000
2022-11-17T02:45:03.461Z,135.000000
2022-11-17T02:46:00.864Z,132.500000
2022-11-17T02:47:00.591Z,132.500000
2022-11-17T02:48:00.677Z,132.500000
2022-11-17T02:49:00.595Z,135.000000
2022-11-17T02:50:04.919Z,135.000000
2022-11-17T02:51:00.630Z,135.000000
2022-11-17T02:52:00.717Z,140.000000
2022-11-17T02:53:00.646Z,140.000000
2022-11-17T02:54:00.708Z,130.000000
2022-11-17T02:55:03.562Z,130.000000
2022-11-17T02:56:00.739Z,135.000000
2022-11-17T02:57:00.658Z,135.000000
2022-11-17T02:58:00.761Z,135.000000
2022-11-17T02:59:00.674Z,140.000000
2022-11-17T03:00:05.163Z,140.000000
2022-11-17T03:01:00.702Z,140.000000
2022-11-17T03:02:00.870Z,135.000000
2022-11-17T03:03:00.716Z,135.000000
2022-11-17T03:04:00.794Z,135.000000
2022-11-17T03:05:04.024Z,130.000000
2022-11-17T03:06:00.802Z,130.000000
2022-11-17T03:07:00.783Z,132.500000
2022-11-17T03:08:00.828Z,132.500000
2022-11-17T03:09:00.760Z,130.000000
2022-11-17T03:10:07.151Z,130.000000
2022-11-17T03:11:00.783Z,130.000000
2022-11-17T03:12:00.877Z,130.000000
2022-11-17T03:13:00.785Z,130.000000
2022-11-17T03:14:00.873Z,130.000000
2022-11-17T03:15:03.732Z,130.000000
2022-11-17T03:16:00.971Z,130.000000
2022-11-17T03:17:00.824Z,135.000000
2022-11-17T03:18:00.890Z,135.000000
2022-11-17T03:19:00.834Z,130.000000
2022-11-17T03:20:06.059Z,130.000000
2022-11-17T03:21:00.852Z,130.000000
2022-11-17T03:22:00.957Z,127.500000
2022-11-17T03:23:00.861Z,127.500000
2022-11-17T03:24:00.947Z,127.500000
2022-11-17T03:25:03.746Z,140.000000
2022-11-17T03:26:00.942Z,140.000000
2022-11-17T03:27:00.889Z,150.000000
2022-11-17T03:28:01.091Z,150.000000
2022-11-17T03:29:00.901Z,147.500000
2022-11-17T03:30:05.879Z,147.500000
2022-11-17T03:31:00.916Z,147.500000
2022-11-17T03:32:00.996Z,147.500000
2022-11-17T03:33:00.943Z,147.500000
2022-11-17T03:34:01.033Z,147.500000
2022-11-17T03:35:06.523Z,147.500000
2022-11-17T03:36:01.039Z,147.500000
2022-11-17T03:37:01.000Z,145.000000
2022-11-17T03:38:01.051Z,145.000000
2022-11-17T03:39:01.002Z,135.000000
2022-11-17T03:40:04.607Z,135.000000
2022-11-17T03:41:01.025Z,135.000000
2022-11-17T03:42:01.104Z,135.000000
2022-11-17T03:43:01.029Z,135.000000
2022-11-17T03:44:01.278Z,130.000000
2022-11-17T03:45:04.225Z,130.000000
2022-11-17T03:46:01.359Z,130.000000
2022-11-17T03:47:01.066Z,155.000000
2022-11-17T03:48:01.153Z,155.000000
2022-11-17T03:49:01.080Z,155.000000
2022-11-17T03:50:05.777Z,132.500000
2022-11-17T03:51:01.098Z,132.500000
2022-11-17T03:52:01.189Z,125.000000
2022-11-17T03:53:01.107Z,125.000000
2022-11-17T03:54:01.190Z,125.000000
2022-11-17T03:55:04.055Z,132.500000
2022-11-17T03:56:01.196Z,132.500000
2022-11-17T03:57:01.142Z,132.500000
2022-11-17T03:58:01.214Z,137.500000
2022-11-17T03:59:01.199Z,137.500000
2022-11-17T04:00:05.805Z,120.000000
2022-11-17T04:01:01.170Z,120.000000
2022-11-17T04:02:01.311Z,120.000000
2022-11-17T04:03:01.190Z,140.000000
2022-11-17T04:04:00.285Z,140.000000
2022-11-17T04:05:03.156Z,137.500000
2022-11-17T04:06:00.275Z,137.500000
2022-11-17T04:07:00.224Z,137.500000
2022-11-17T04:08:00.275Z,117.500000
2022-11-17T04:09:00.239Z,117.500000
2022-11-17T04:10:03.557Z,122.500000
2022-11-17T04:11:00.230Z,122.500000
2022-11-17T04:12:00.325Z,122.500000
2022-11-17T04:13:00.245Z,140.000000
2022-11-17T04:14:00.322Z,140.000000
2022-11-17T04:15:03.121Z,140.000000
2022-11-17T04:16:00.364Z,140.000000
2022-11-17T04:17:00.282Z,140.000000
2022-11-17T04:18:00.361Z,135.000000
2022-11-17T04:19:00.292Z,135.000000
2022-11-17T04:20:04.656Z,135.000000
2022-11-17T04:21:00.326Z,130.000000
2022-11-17T04:22:00.411Z,130.000000
2022-11-17T04:23:00.324Z,125.000000
2022-11-17T04:24:00.382Z,125.000000
2022-11-17T04:25:03.197Z,125.000000
2022-11-17T04:26:00.416Z,135.000000
2022-11-17T04:27:00.365Z,135.000000
2022-11-17T04:28:00.463Z,140.000000
2022-11-17T04:29:00.377Z,140.000000
2022-11-17T04:30:05.305Z,130.000000
2022-11-17T04:31:00.415Z,130.000000
2022-11-17T04:32:00.485Z,130.000000
2022-11-17T04:33:00.437Z,140.000000
2022-11-17T04:34:00.519Z,140.000000
2022-11-17T04:35:03.375Z,140.000000
2022-11-17T04:36:00.511Z,152.500000
2022-11-17T04:37:05.368Z,152.500000
2022-11-17T04:38:32.600Z,145.000000
2022-11-17T04:39:00.478Z,145.000000
2022-11-17T04:40:04.883Z,145.000000
2022-11-17T04:41:00.477Z,140.000000
2022-11-17T04:42:01.600Z,140.000000
2022-11-17T04:43:00.532Z,145.000000
2022-11-17T04:44:00.571Z,145.000000
2022-11-17T04:45:03.550Z,145.000000
2022-11-17T04:46:00.641Z,140.000000
2022-11-17T04:47:00.533Z,140.000000
2022-11-17T04:48:00.611Z,140.000000
2022-11-17T04:49:00.550Z,140.000000
2022-11-17T04:50:05.047Z,137.500000
2022-11-17T04:51:00.562Z,137.500000
2022-11-17T04:52:00.727Z,137.500000
2022-11-17T04:53:00.592Z,160.000000
2022-11-17T04:54:00.726Z,160.000000
2022-11-17T04:55:03.975Z,160.000000
2022-11-17T04:56:01.831Z,167.500000
2022-11-17T04:57:00.618Z,167.500000
2022-11-17T04:58:00.755Z,150.000000
2022-11-17T04:59:00.617Z,150.000000
2022-11-17T05:00:09.856Z,140.000000
2022-11-17T05:01:00.630Z,140.000000
2022-11-17T05:02:05.551Z,140.000000
2022-11-17T05:03:00.691Z,155.000000
2022-11-17T05:04:00.767Z,155.000000
2022-11-17T05:05:03.570Z,155.000000
2022-11-17T05:06:00.778Z,145.000000
2022-11-17T05:07:00.753Z,145.000000
2022-11-17T05:08:00.743Z,145.000000
2022-11-17T05:09:00.696Z,145.000000
2022-11-17T05:10:05.107Z,145.000000
2022-11-17T05:11:00.787Z,135.000000
2022-11-17T05:12:00.790Z,135.000000
2022-11-17T05:13:00.730Z,152.500000
2022-11-17T05:14:00.816Z,152.500000
2022-11-17T05:15:03.771Z,152.500000
2022-11-17T05:16:00.840Z,145.000000
2022-11-17T05:17:07.355Z,145.000000
2022-11-17T05:18:00.862Z,140.000000
2022-11-17T05:19:00.766Z,140.000000
2022-11-17T05:20:05.209Z,140.000000
2022-11-17T05:21:00.804Z,140.000000
2022-11-17T05:22:00.883Z,140.000000
2022-11-17T05:23:05.424Z,132.500000
2022-11-17T05:24:01.611Z,132.500000
2022-11-17T05:25:05.429Z,127.500000
2022-11-17T05:26:00.901Z,127.500000
2022-11-17T05:27:01.085Z,127.500000
2022-11-17T05:28:00.938Z,125.000000
2022-11-17T05:29:00.862Z,125.000000
2022-11-17T05:30:04.186Z,125.000000
2022-11-17T05:31:00.879Z,137.500000
2022-11-17T05:32:00.939Z,137.500000
2022-11-17T05:33:00.884Z,140.000000
2022-11-17T05:34:01.090Z,140.000000
2022-11-17T05:35:03.982Z,140.000000
2022-11-17T05:36:00.989Z,127.500000
2022-11-17T05:37:00.923Z,127.500000
2022-11-17T05:38:01.601Z,127.500000
2022-11-17T05:39:00.942Z,130.000000
2022-11-17T05:40:05.356Z,130.000000
2022-11-17T05:41:00.935Z,132.500000
2022-11-17T05:42:01.017Z,132.500000
2022-11-17T05:43:00.953Z,132.500000
2022-11-17T05:44:01.045Z,135.000000
2022-11-17T05:45:03.928Z,135.000000
2022-11-17T05:46:01.038Z,127.500000
2022-11-17T05:47:01.151Z,127.500000
2022-11-17T05:48:01.059Z,127.500000
2022-11-17T05:49:01.024Z,137.500000
2022-11-17T05:50:05.471Z,137.500000
2022-11-17T05:51:01.003Z,135.000000
2022-11-17T05:52:01.678Z,135.000000
2022-11-17T05:53:01.008Z,135.000000
2022-11-17T05:54:01.102Z,125.000000
2022-11-17T05:55:04.093Z,125.000000
2022-11-17T05:56:01.101Z,137.500000
2022-11-17T05:57:01.036Z,137.500000
2022-11-17T05:58:01.140Z,137.500000
2022-11-17T05:59:01.049Z,137.500000
2022-11-17T06:00:05.662Z,137.500000
2022-11-17T06:01:01.067Z,137.500000
2022-11-17T06:02:01.152Z,132.500000
2022-11-17T06:03:01.085Z,132.500000
2022-11-17T06:04:01.229Z,132.500000
2022-11-17T06:05:05.269Z,132.500000
2022-11-17T06:06:01.632Z,130.000000
2022-11-17T06:07:01.159Z,130.000000
2022-11-17T06:08:01.190Z,130.000000
2022-11-17T06:09:01.123Z,132.500000
2022-11-17T06:10:04.406Z,132.500000
2022-11-17T06:11:01.150Z,140.000000
2022-11-17T06:12:05.461Z,140.000000
2022-11-17T06:13:01.160Z,140.000000
2022-11-17T06:14:01.245Z,140.000000
2022-11-17T06:15:04.445Z,140.000000
2022-11-17T06:16:01.286Z,150.000000
2022-11-17T06:17:01.184Z,150.000000
2022-11-17T06:18:00.274Z,150.000000
2022-11-17T06:19:00.199Z,147.500000
2022-11-17T06:20:04.996Z,137.500000
2022-11-17T06:21:00.227Z,137.500000
2022-11-17T06:22:12.957Z,130.000000
2022-11-17T06:23:00.235Z,130.000000
2022-11-17T06:24:00.308Z,140.000000
2022-11-17T06:25:03.206Z,140.000000
2022-11-17T06:26:00.315Z,140.000000
2022-11-17T06:27:00.269Z,132.500000
2022-11-17T06:28:00.367Z,132.500000
2022-11-17T06:29:00.391Z,127.500000
2022-11-17T06:30:04.634Z,127.500000
2022-11-17T06:31:00.289Z,135.000000
2022-11-17T06:32:00.366Z,135.000000
2022-11-17T06:33:00.318Z,135.000000
2022-11-17T06:34:01.802Z,150.000000
2022-11-17T06:35:03.308Z,150.000000
2022-11-17T06:36:00.403Z,150.000000
2022-11-17T06:37:00.335Z,150.000000
2022-11-17T06:38:00.468Z,150.000000
2022-11-17T06:39:00.348Z,140.000000
2022-11-17T06:40:03.685Z,140.000000
2022-11-17T06:41:00.358Z,147.500000
2022-11-17T06:42:00.446Z,147.500000
2022-11-17T06:43:00.379Z,150.000000
2022-11-17T06:44:00.457Z,150.000000
2022-11-17T06:45:03.389Z,150.000000
2022-11-17T06:46:00.481Z,150.000000
2022-11-17T06:47:00.411Z,150.000000
2022-11-17T06:48:01.626Z,150.000000
2022-11-17T06:49:00.426Z,150.000000
2022-11-17T06:50:04.755Z,150.000000
2022-11-17T06:51:00.445Z,152.500000
2022-11-17T06:52:00.579Z,152.500000
2022-11-17T06:53:00.480Z,152.500000
2022-11-17T06:54:00.776Z,135.000000
2022-11-17T06:55:03.367Z,135.000000
2022-11-17T06:56:00.531Z,135.000000
2022-11-17T06:57:00.506Z,140.000000
2022-11-17T06:58:00.573Z,140.000000
2022-11-17T06:59:00.510Z,140.000000
2022-11-17T07:00:04.965Z,115.000000
2022-11-17T07:01:00.648Z,115.000000
2022-11-17T07:02:01.613Z,305.000000
2022-11-17T07:03:00.613Z,305.000000
2022-11-17T07:04:00.629Z,305.000000
2022-11-17T07:05:03.661Z,305.000000
2022-11-17T07:06:00.653Z,305.000000
2022-11-17T07:07:00.608Z,322.500000
2022-11-17T07:08:00.735Z,322.500000
2022-11-17T07:09:00.616Z,322.500000
2022-11-17T07:10:05.307Z,225.000000
2022-11-17T07:11:00.605Z,225.000000
2022-11-17T07:12:00.691Z,185.000000
2022-11-17T07:13:00.717Z,185.000000
2022-11-17T07:14:00.724Z,185.000000
2022-11-17T07:15:05.237Z,172.500000
2022-11-17T07:16:01.648Z,172.500000
2022-11-17T07:17:00.659Z,172.500000
2022-11-17T07:18:00.859Z,200.000000
2022-11-17T07:19:00.725Z,200.000000
2022-11-17T07:20:05.682Z,267.500000
2022-11-17T07:21:00.694Z,267.500000
2022-11-17T07:22:00.890Z,267.500000
2022-11-17T07:23:00.721Z,255.000000
2022-11-17T07:24:00.796Z,255.000000
2022-11-17T07:25:04.874Z,250.000000
2022-11-17T07:26:00.839Z,250.000000
2022-11-17T07:27:00.763Z,117.500000
2022-11-17T07:28:00.855Z,117.500000
2022-11-17T07:29:00.836Z,117.500000
2022-11-17T07:30:07.513Z,132.500000
2022-11-17T07:31:00.819Z,132.500000
2022-11-17T07:32:00.870Z,132.500000
2022-11-17T07:33:00.797Z,150.000000
2022-11-17T07:34:01.644Z,150.000000
2022-11-17T07:35:03.903Z,135.000000
2022-11-17T07:36:00.909Z,135.000000
2022-11-17T07:37:00.846Z,140.000000
2022-11-17T07:38:00.942Z,140.000000
2022-11-17T07:39:00.858Z,140.000000
2022-11-17T07:40:05.441Z,147.500000
2022-11-17T07:41:00.873Z,147.500000
2022-11-17T07:42:00.935Z,147.500000
2022-11-17T07:43:00.875Z,150.000000
2022-11-17T07:44:01.189Z,150.000000
2022-11-17T07:45:03.685Z,150.000000
2022-11-17T07:46:01.056Z,157.500000
2022-11-17T07:47:00.927Z,157.500000
2022-11-17T07:48:01.694Z,142.500000
2022-11-17T07:49:00.906Z,142.500000
2022-11-17T07:50:05.453Z,170.000000
2022-11-17T07:51:01.008Z,170.000000
2022-11-17T07:52:01.668Z,170.000000
2022-11-17T07:53:00.962Z,135.000000
2022-11-17T07:54:01.021Z,135.000000
2022-11-17T07:55:03.765Z,140.000000
2022-11-17T07:56:01.657Z,140.000000
2022-11-17T07:57:01.000Z,140.000000
2022-11-17T07:58:01.154Z,150.000000
2022-11-17T07:59:00.999Z,150.000000
2022-11-17T08:00:09.378Z,145.000000
2022-11-17T08:01:01.051Z,145.000000
2022-11-17T08:02:01.063Z,150.000000
2022-11-17T08:03:01.017Z,152.500000
2022-11-17T08:04:01.777Z,152.500000
2022-11-17T08:05:04.018Z,152.500000
2022-11-17T08:06:01.128Z,145.000000
2022-11-17T08:07:01.111Z,145.000000
2022-11-17T08:08:01.202Z,140.000000
2022-11-17T08:09:01.068Z,140.000000
2022-11-17T08:10:05.942Z,150.000000
2022-11-17T08:11:01.060Z,150.000000
2022-11-17T08:12:01.148Z,152.500000
2022-11-17T08:13:01.086Z,152.500000
2022-11-17T08:14:01.215Z,152.500000
2022-11-17T08:15:04.074Z,160.000000
2022-11-17T08:16:01.243Z,160.000000
2022-11-17T08:17:01.088Z,160.000000
2022-11-17T08:18:01.631Z,150.000000
2022-11-17T08:19:01.115Z,150.000000
2022-11-17T08:20:05.605Z,170.000000
2022-11-17T08:21:01.158Z,170.000000
2022-11-17T08:22:01.368Z,175.000000
2022-11-17T08:23:01.145Z,175.000000
2022-11-17T08:24:01.253Z,175.000000
2022-11-17T08:25:04.216Z,160.000000
2022-11-17T08:26:01.218Z,160.000000
2022-11-17T08:27:01.177Z,160.000000
2022-11-17T08:28:01.284Z,140.000000
2022-11-17T08:29:01.196Z,140.000000
2022-11-17T08:30:05.658Z,162.500000
2022-11-17T08:31:00.199Z,162.500000
2022-11-17T08:32:01.627Z,162.500000
2022-11-17T08:33:00.234Z,145.000000
2022-11-17T08:34:00.348Z,145.000000
2022-11-17T08:35:03.133Z,145.000000
2022-11-17T08:36:00.355Z,160.000000
2022-11-17T08:37:00.261Z,160.000000
2022-11-17T08:38:01.684Z,160.000000
2022-11-17T08:39:00.277Z,160.000000
2022-11-17T08:40:04.635Z,160.000000
2022-11-17T08:41:00.370Z,160.000000
2022-11-17T08:42:00.392Z,160.000000
2022-11-17T08:43:01.489Z,165.000000
2022-11-17T08:44:00.365Z,165.000000
2022-11-17T08:45:03.443Z,165.000000
2022-11-17T08:46:00.577Z,165.000000
2022-11-17T08:47:00.333Z,165.000000
2022-11-17T08:48:00.412Z,142.500000
2022-11-17T08:49:00.349Z,142.500000
2022-11-17T08:50:04.730Z,142.500000
2022-11-17T08:51:00.390Z,147.500000
2022-11-17T08:52:01.692Z,147.500000
2022-11-17T08:53:00.338Z,142.500000
2022-11-17T08:54:00.426Z,142.500000
2022-11-17T08:55:03.477Z,147.500000
2022-11-17T08:56:00.463Z,147.500000
2022-11-17T08:57:00.478Z,147.500000
2022-11-17T08:58:00.587Z,147.500000
2022-11-17T08:59:00.388Z,137.500000
2022-11-17T09:00:04.781Z,137.500000
2022-11-17T09:01:05.114Z,147.500000
2022-11-17T09:02:00.631Z,147.500000
2022-11-17T09:03:00.464Z,147.500000
2022-11-17T09:04:00.699Z,155.000000
2022-11-17T09:05:07.507Z,155.000000
2022-11-17T09:06:02.845Z,160.000000
2022-11-17T09:07:00.538Z,160.000000
2022-11-17T09:08:22.476Z,165.000000
2022-11-17T09:09:00.731Z,165.000000
2022-11-17T09:10:04.572Z,165.000000
2022-11-17T09:11:00.499Z,155.000000
2022-11-17T09:12:00.857Z,155.000000
2022-11-17T09:13:00.491Z,155.000000
2022-11-17T09:14:01.052Z,150.000000
2022-11-17T09:15:06.758Z,150.000000
2022-11-17T09:16:01.201Z,172.500000
2022-11-17T09:17:00.533Z,172.500000
2022-11-17T09:18:00.971Z,165.000000
2022-11-17T09:19:00.537Z,165.000000
2022-11-17T09:20:03.699Z,165.000000
2022-11-17T09:21:00.588Z,145.000000
2022-11-17T09:22:00.625Z,145.000000
2022-11-17T09:23:00.564Z,145.000000
2022-11-17T09:24:01.638Z,170.000000
2022-11-17T09:25:07.540Z,170.000000
2022-11-17T09:26:00.644Z,150.000000
2022-11-17T09:27:00.828Z,150.000000
2022-11-17T09:28:00.672Z,150.000000
2022-11-17T09:29:00.641Z,160.000000
2022-11-17T09:30:03.727Z,160.000000
2022-11-17T09:31:01.583Z,150.000000
2022-11-17T09:32:00.700Z,150.000000
2022-11-17T09:33:00.672Z,150.000000
2022-11-17T09:34:03.797Z,137.500000
2022-11-17T09:35:04.751Z,137.500000
2022-11-17T09:36:00.783Z,145.000000
2022-11-17T09:37:00.723Z,145.000000
2022-11-17T09:38:01.676Z,145.000000
2022-11-17T09:39:00.691Z,165.000000
2022-11-17T09:40:04.066Z,165.000000
2022-11-17T09:41:00.687Z,147.500000
2022-11-17T09:42:01.658Z,147.500000
2022-11-17T09:43:00.687Z,147.500000
2022-11-17T09:44:00.803Z,152.500000
2022-11-17T09:45:04.051Z,152.500000
2022-11-17T09:46:07.160Z,147.500000
2022-11-17T09:47:00.725Z,147.500000
2022-11-17T09:48:18.431Z,147.500000
2022-11-17T09:49:00.808Z,155.000000
2022-11-17T09:50:05.238Z,155.000000
2022-11-17T09:51:00.766Z,175.000000
2022-11-17T09:52:00.881Z,175.000000
2022-11-17T09:53:00.778Z,175.000000
2022-11-17T09:54:01.649Z,165.000000
2022-11-17T09:55:05.003Z,165.000000
2022-11-17T09:56:00.877Z,165.000000
2022-11-17T09:57:00.815Z,160.000000
2022-11-17T09:58:00.865Z,160.000000
2022-11-17T09:59:01.536Z,152.500000
2022-11-17T10:00:05.760Z,152.500000
2022-11-17T10:01:00.836Z,152.500000
2022-11-17T10:02:01.041Z,150.000000
2022-11-17T10:03:00.839Z,150.000000
2022-11-17T10:04:00.946Z,160.000000
2022-11-17T10:05:04.993Z,160.000000
2022-11-17T10:06:00.965Z,160.000000
2022-11-17T10:07:00.901Z,175.000000
2022-11-17T10:08:01.663Z,175.000000
2022-11-17T10:09:00.897Z,165.000000
2022-11-17T10:10:05.549Z,165.000000
2022-11-17T10:11:00.904Z,165.000000
2022-11-17T10:12:01.675Z,162.500000
2022-11-17T10:13:00.905Z,162.500000
2022-11-17T10:14:01.007Z,175.000000
2022-11-17T10:15:03.939Z,175.000000
2022-11-17T10:16:01.633Z,175.000000
2022-11-17T10:17:00.944Z,162.500000
2022-11-17T10:18:01.029Z,162.500000
2022-11-17T10:19:00.953Z,162.500000
2022-11-17T10:20:05.376Z,117.500000
2022-11-17T10:21:00.984Z,117.500000
2022-11-17T10:22:01.075Z,175.000000
2022-11-17T10:23:00.993Z,175.000000
2022-11-17T10:24:01.667Z,175.000000
2022-11-17T10:25:04.257Z,172.500000
2022-11-17T10:26:01.106Z,172.500000
2022-11-17T10:27:01.025Z,165.000000
2022-11-17T10:28:01.093Z,165.000000
2022-11-17T10:29:05.380Z,165.000000
2022-11-17T10:30:07.418Z,215.000000
2022-11-17T10:31:01.032Z,215.000000
2022-11-17T10:32:01.155Z,165.000000
2022-11-17T10:33:01.103Z,165.000000
2022-11-17T10:34:01.394Z,165.000000
2022-11-17T10:35:03.996Z,195.000000
2022-11-17T10:36:01.184Z,195.000000
2022-11-17T10:37:01.075Z,175.000000
2022-11-17T10:38:01.710Z,175.000000
2022-11-17T10:39:01.113Z,175.000000
2022-11-17T10:40:05.650Z,175.000000
2022-11-17T10:41:01.124Z,175.000000
2022-11-17T10:42:01.654Z,175.000000
2022-11-17T10:43:01.117Z,287.500000
2022-11-17T10:44:01.209Z,287.500000
2022-11-17T10:45:03.979Z,190.000000
2022-11-17T10:46:01.657Z,190.000000
2022-11-17T10:47:03.055Z,175.000000
2022-11-17T10:48:01.250Z,175.000000
2022-11-17T10:49:01.169Z,175.000000
2022-11-17T10:50:05.562Z,172.500000
2022-11-17T10:51:01.229Z,172.500000
2022-11-17T10:52:00.277Z,157.500000
2022-11-17T10:53:00.206Z,157.500000
2022-11-17T10:54:01.831Z,157.500000
2022-11-17T10:55:04.771Z,175.000000
2022-11-17T10:56:00.313Z,175.000000
2022-11-17T10:57:00.236Z,175.000000
2022-11-17T10:58:00.335Z,175.000000
2022-11-17T10:59:00.242Z,175.000000
2022-11-17T11:00:04.622Z,157.500000
2022-11-17T11:01:00.348Z,157.500000
2022-11-17T11:02:00.377Z,132.500000
2022-11-17T11:03:00.322Z,132.500000
2022-11-17T11:04:00.347Z,132.500000
2022-11-17T11:05:06.580Z,155.000000